Time;durP1;ratioP1;P1;durP2;ratioP2;P2;SDS_P1;SDS_P2;PMS_P1;PMS_P2;Temp;Humidity;BMP_temperature;BMP_pressure;BME280_temperature;BME280_humidity;BME280_pressure;Samples;Min_cycle;Max_cycle;Signal;HPM_P1;HPM_P2
2021/09/28 00:02:07;;;;;;;5.57;5.03;;;17.50;99.90;;;;;;4955952;28;20409;-91
2021/09/28 00:04:52;;;;;;;5.38;4.82;;;17.50;99.90;;;;;;4936883;28;20397;-89
2021/09/28 00:07:36;;;;;;;5.03;4.53;;;17.50;99.90;;;;;;4942135;28;20503;-90
2021/09/28 00:10:21;;;;;;;5.78;5.15;;;17.50;99.90;;;;;;4957673;28;20408;-92
2021/09/28 00:13:05;;;;;;;8.93;5.95;;;17.50;99.90;;;;;;4952445;28;20987;-92
2021/09/28 00:15:50;;;;;;;6.60;5.38;;;17.50;99.90;;;;;;4968960;28;20489;-89
2021/09/28 00:18:34;;;;;;;5.57;5.07;;;17.40;99.90;;;;;;4955300;28;20444;-92
2021/09/28 00:21:19;;;;;;;7.60;6.90;;;17.30;99.90;;;;;;4946999;28;20411;-88
2021/09/28 00:24:04;;;;;;;5.10;4.70;;;17.20;99.90;;;;;;4943109;28;20421;-90
2021/09/28 00:26:48;;;;;;;6.60;5.53;;;17.10;99.90;;;;;;4961157;28;20418;-92
2021/09/28 00:29:33;;;;;;;5.95;5.45;;;17.10;99.90;;;;;;4942296;28;20522;-90
2021/09/28 00:32:18;;;;;;;5.03;4.53;;;17.10;99.90;;;;;;4942964;28;20475;-91
2021/09/28 00:35:02;;;;;;;4.88;4.40;;;17.20;99.90;;;;;;4963022;28;20729;-89
2021/09/28 00:37:46;;;;;;;4.68;4.30;;;17.10;99.90;;;;;;4955450;28;20501;-91
2021/09/28 00:40:31;;;;;;;4.75;4.35;;;17.20;99.90;;;;;;4973668;28;20397;-91
2021/09/28 00:43:17;;;;;;;6.13;5.18;;;17.10;99.90;;;;;;4955055;28;20432;-93
2021/09/28 00:46:01;;;;;;;5.00;4.60;;;17.10;99.90;;;;;;4966651;28;20444;-89
2021/09/28 00:48:46;;;;;;;6.60;5.37;;;17.10;99.90;;;;;;4941530;28;20405;-89
2021/09/28 00:51:30;;;;;;;8.73;7.60;;;16.90;99.90;;;;;;4965281;28;20426;-91
2021/09/28 00:54:14;;;;;;;4.80;4.50;;;16.90;99.90;;;;;;4952626;28;20470;-92
2021/09/28 00:56:58;;;;;;;5.88;5.28;;;16.90;99.90;;;;;;4967315;28;20491;-88
2021/09/28 00:59:43;;;;;;;5.18;4.68;;;16.90;99.90;;;;;;4954780;28;20429;-89
2021/09/28 01:02:28;;;;;;;4.80;4.30;;;16.90;99.90;;;;;;4954154;28;20437;-88
2021/09/28 01:05:12;;;;;;;6.28;5.00;;;17.00;99.90;;;;;;4944962;28;20948;-87
2021/09/28 01:07:56;;;;;;;4.45;4.05;;;16.90;99.90;;;;;;4947946;28;20465;-86
2021/09/28 01:10:41;;;;;;;4.93;4.43;;;16.90;99.90;;;;;;4969741;28;20595;-87
2021/09/28 01:13:26;;;;;;;5.90;5.37;;;16.90;99.90;;;;;;4954845;28;20506;-89
2021/09/28 01:16:11;;;;;;;5.40;4.30;;;16.90;99.90;;;;;;4949689;28;20406;-84
2021/09/28 01:18:55;;;;;;;5.00;4.50;;;16.80;99.90;;;;;;4939653;28;20440;-87
2021/09/28 01:21:39;;;;;;;5.03;4.53;;;16.80;99.90;;;;;;4940145;28;20996;-88
2021/09/28 01:24:24;;;;;;;4.80;4.40;;;16.90;99.90;;;;;;4936800;28;20409;-88
2021/09/28 01:27:08;;;;;;;5.13;4.63;;;16.80;99.90;;;;;;4953477;28;20392;-89
2021/09/28 01:29:52;;;;;;;4.50;4.10;;;16.80;99.90;;;;;;4935843;28;20466;-85
2021/09/28 01:32:37;;;;;;;5.32;4.70;;;16.80;99.90;;;;;;4949131;28;20433;-86
2021/09/28 01:35:22;;;;;;;5.10;4.68;;;16.80;99.90;;;;;;4952084;28;20417;-84
2021/09/28 01:38:06;;;;;;;8.77;5.95;;;16.80;99.90;;;;;;4966438;28;20440;-85
2021/09/28 01:40:50;;;;;;;5.13;4.63;;;16.70;99.90;;;;;;4937831;28;20405;-90
2021/09/28 01:43:35;;;;;;;5.18;4.63;;;16.70;99.90;;;;;;4951868;28;20413;-88
2021/09/28 01:46:19;;;;;;;5.70;5.10;;;16.60;99.90;;;;;;4951820;28;20393;-86
2021/09/28 01:49:03;;;;;;;5.15;4.75;;;16.60;99.90;;;;;;4965144;28;20437;-85
2021/09/28 01:51:47;;;;;;;4.88;4.38;;;16.60;99.90;;;;;;4971870;28;20864;-88
2021/09/28 01:54:32;;;;;;;4.93;4.53;;;16.70;99.90;;;;;;4946408;28;20436;-86
2021/09/28 01:57:16;;;;;;;5.25;4.75;;;16.50;99.90;;;;;;4950433;28;20436;-90
2021/09/28 02:00:02;;;;;;;5.32;4.93;;;16.50;99.90;;;;;;4949666;28;20439;-88
2021/09/28 02:02:56;;;;;;;4.90;4.50;;;16.50;99.90;;;;;;4975085;28;20416;-90
2021/09/28 02:05:40;;;;;;;4.53;4.13;;;16.50;99.90;;;;;;4976583;28;20489;-87
2021/09/28 02:08:24;;;;;;;5.28;4.78;;;16.50;99.90;;;;;;4922007;28;20416;-89
2021/09/28 02:11:08;;;;;;;4.88;4.47;;;16.50;99.90;;;;;;4936489;28;20457;-89
2021/09/28 02:13:53;;;;;;;4.40;4.00;;;16.50;99.90;;;;;;4963400;28;20412;-88
2021/09/28 02:16:38;;;;;;;5.15;4.60;;;16.40;99.90;;;;;;4936225;28;20473;-88
2021/09/28 02:19:22;;;;;;;4.65;4.25;;;16.50;99.90;;;;;;4978951;28;20884;-88
2021/09/28 02:22:07;;;;;;;5.20;4.72;;;16.40;99.90;;;;;;4980629;28;20397;-86
2021/09/28 02:24:51;;;;;;;5.38;4.88;;;16.40;99.90;;;;;;4944465;28;20410;-88
2021/09/28 02:27:36;;;;;;;7.47;6.70;;;16.30;99.90;;;;;;4935142;28;20417;-86
2021/09/28 02:30:20;;;;;;;5.57;5.00;;;16.30;99.90;;;;;;4967006;28;20425;-89
2021/09/28 02:33:04;;;;;;;5.57;5.07;;;16.30;99.90;;;;;;4961945;28;20436;-87
2021/09/28 02:35:49;;;;;;;5.85;5.20;;;16.30;99.90;;;;;;4966764;28;20413;-89
2021/09/28 02:38:33;;;;;;;5.53;4.95;;;16.40;99.90;;;;;;4939082;28;20440;-88
2021/09/28 02:41:17;;;;;;;5.57;5.07;;;16.40;99.90;;;;;;4966762;28;20413;-85
2021/09/28 02:44:03;;;;;;;5.40;4.93;;;16.30;99.90;;;;;;4952132;28;20426;-83
2021/09/28 02:46:47;;;;;;;5.40;4.90;;;16.30;99.90;;;;;;4944759;28;20462;-87
2021/09/28 02:49:32;;;;;;;5.00;4.43;;;16.30;99.90;;;;;;4962674;28;20898;-84
2021/09/28 02:52:16;;;;;;;8.27;6.38;;;16.30;99.90;;;;;;4936322;28;20421;-86
2021/09/28 02:55:00;;;;;;;5.20;4.63;;;16.30;99.90;;;;;;4952512;28;20425;-87
2021/09/28 02:57:44;;;;;;;5.20;4.70;;;16.30;99.90;;;;;;4966856;28;20425;-88
2021/09/28 03:00:29;;;;;;;5.28;4.88;;;16.30;99.90;;;;;;4951794;28;20580;-87
2021/09/28 03:03:13;;;;;;;4.55;4.15;;;16.40;99.90;;;;;;4960178;28;20454;-89
2021/09/28 03:05:58;;;;;;;5.28;4.30;;;16.40;99.90;;;;;;4938428;28;20468;-86
2021/09/28 03:08:42;;;;;;;4.50;4.10;;;16.40;99.90;;;;;;4965126;28;20594;-86
2021/09/28 03:11:27;;;;;;;4.30;4.00;;;16.40;99.90;;;;;;4955539;28;20514;-85
2021/09/28 03:14:11;;;;;;;4.97;4.47;;;16.50;99.90;;;;;;4952390;28;20436;-89
2021/09/28 03:16:55;;;;;;;4.95;4.55;;;16.40;99.90;;;;;;4965229;28;20691;-87
2021/09/28 03:19:40;;;;;;;6.00;4.95;;;16.40;99.90;;;;;;4938772;28;20457;-88
2021/09/28 03:22:24;;;;;;;4.47;4.07;;;16.30;99.90;;;;;;4955207;28;20482;-88
2021/09/28 03:25:09;;;;;;;5.70;5.20;;;16.30;99.90;;;;;;4976429;28;20465;-84
2021/09/28 03:27:53;;;;;;;7.07;5.33;;;16.30;99.90;;;;;;4968902;28;20508;-85
2021/09/28 03:30:37;;;;;;;4.57;4.18;;;16.30;99.90;;;;;;4940039;28;20494;-88
2021/09/28 03:33:22;;;;;;;4.90;4.50;;;16.30;99.90;;;;;;4942741;28;20425;-89
2021/09/28 03:36:06;;;;;;;5.60;5.10;;;16.30;99.90;;;;;;4933350;28;20526;-86
2021/09/28 03:38:50;;;;;;;6.47;5.87;;;16.30;99.90;;;;;;4963410;28;20416;-87
2021/09/28 03:41:35;;;;;;;6.43;5.80;;;16.20;99.90;;;;;;4974441;28;20414;-88
2021/09/28 03:44:19;;;;;;;7.10;6.40;;;16.10;99.90;;;;;;4950472;28;20777;-87
2021/09/28 03:47:04;;;;;;;5.45;4.97;;;16.10;99.90;;;;;;4975708;28;20404;-88
2021/09/28 03:49:49;;;;;;;4.38;3.97;;;16.20;99.90;;;;;;4940909;28;20409;-88
2021/09/28 03:52:34;;;;;;;4.53;4.13;;;16.20;99.90;;;;;;4954743;28;20775;-88
2021/09/28 03:55:21;;;;;;;4.38;4.00;;;16.30;99.90;;;;;;4954707;28;20505;-86
2021/09/28 03:58:05;;;;;;;5.65;5.18;;;16.30;99.90;;;;;;4984651;28;21131;-84
2021/09/28 04:00:49;;;;;;;4.95;4.47;;;16.30;99.90;;;;;;4939995;28;20433;-88
2021/09/28 04:03:33;;;;;;;5.15;4.70;;;16.30;99.90;;;;;;4939943;28;20473;-87
2021/09/28 04:06:18;;;;;;;6.53;5.93;;;16.40;99.90;;;;;;4960828;28;20409;-88
2021/09/28 04:09:02;;;;;;;4.30;4.00;;;16.30;99.90;;;;;;4942388;28;20676;-89
2021/09/28 04:11:47;;;;;;;7.95;5.85;;;16.20;99.90;;;;;;4964800;28;20469;-91
2021/09/28 04:14:31;;;;;;;4.90;4.22;;;16.20;99.90;;;;;;4940812;28;20429;-86
2021/09/28 04:17:15;;;;;;;6.50;5.43;;;16.20;99.90;;;;;;4940372;28;20534;-89
2021/09/28 04:20:00;;;;;;;6.63;6.03;;;16.20;99.90;;;;;;4968009;28;20416;-89
2021/09/28 04:22:45;;;;;;;6.10;5.00;;;16.20;99.90;;;;;;4924070;28;20425;-89
2021/09/28 04:25:29;;;;;;;5.68;5.28;;;16.20;99.90;;;;;;4943065;28;20545;-89
2021/09/28 04:28:13;;;;;;;8.40;6.20;;;16.20;99.90;;;;;;4946767;28;20449;-88
2021/09/28 04:30:59;;;;;;;6.22;5.40;;;16.30;99.90;;;;;;4940690;28;20406;-89
2021/09/28 04:33:43;;;;;;;5.57;5.07;;;16.20;99.90;;;;;;4955060;28;20563;-83
2021/09/28 04:36:28;;;;;;;5.72;5.10;;;16.20;99.90;;;;;;4941597;28;20392;-89
2021/09/28 04:39:13;;;;;;;4.65;4.25;;;16.20;99.90;;;;;;4948991;28;20448;-88
2021/09/28 04:41:57;;;;;;;5.80;5.30;;;16.10;99.90;;;;;;4971999;28;20621;-88
2021/09/28 04:44:42;;;;;;;4.80;4.40;;;16.10;99.90;;;;;;4964994;28;20441;-89
2021/09/28 04:47:27;;;;;;;5.28;4.82;;;16.10;99.90;;;;;;4941905;28;20521;-90
2021/09/28 04:50:11;;;;;;;9.60;5.35;;;16.10;99.90;;;;;;4938223;28;20411;-92
2021/09/28 04:52:55;;;;;;;6.75;6.10;;;16.00;99.90;;;;;;4972702;28;20437;-91
2021/09/28 04:55:40;;;;;;;5.30;4.80;;;16.00;99.90;;;;;;4949846;28;20409;-89
2021/09/28 04:58:26;;;;;;;5.43;4.93;;;15.90;99.90;;;;;;4948460;28;20416;-89
2021/09/28 05:01:10;;;;;;;8.93;6.97;;;15.90;99.90;;;;;;4924357;28;20465;-87
2021/09/28 05:03:55;;;;;;;5.85;5.28;;;15.80;99.90;;;;;;4942793;28;20421;-88
2021/09/28 05:06:42;;;;;;;6.93;6.20;;;15.70;99.90;;;;;;4958695;28;20430;-90
2021/09/28 05:09:27;;;;;;;4.88;4.47;;;15.60;99.90;;;;;;4970591;28;20487;-87
2021/09/28 05:12:11;;;;;;;4.13;3.65;;;15.60;99.90;;;;;;4947413;28;20425;-86
2021/09/28 05:14:57;;;;;;;4.20;3.80;;;15.70;99.90;;;;;;4966582;28;20432;-89
2021/09/28 05:17:41;;;;;;;3.92;3.63;;;15.70;99.90;;;;;;4956838;28;20414;-90
2021/09/28 05:20:26;;;;;;;4.35;3.95;;;15.70;99.90;;;;;;4943135;28;20434;-92
2021/09/28 05:23:10;;;;;;;3.92;3.42;;;15.70;99.90;;;;;;4943082;28;20433;-88
2021/09/28 05:25:55;;;;;;;3.88;3.58;;;15.70;99.90;;;;;;4973336;28;20934;-90
2021/09/28 05:28:40;;;;;;;4.20;3.80;;;15.70;99.90;;;;;;4950311;28;20525;-89
2021/09/28 05:31:24;;;;;;;3.85;3.55;;;15.70;99.90;;;;;;4944621;28;20438;-87
2021/09/28 05:34:08;;;;;;;4.53;4.15;;;15.70;99.90;;;;;;4966505;28;20410;-89
2021/09/28 05:36:55;;;;;;;5.03;4.60;;;15.60;99.90;;;;;;4944944;28;20463;-89
2021/09/28 05:39:39;;;;;;;4.35;3.95;;;15.60;99.90;;;;;;4974168;28;20403;-90
2021/09/28 05:42:23;;;;;;;4.50;4.20;;;15.50;99.90;;;;;;4960914;28;20424;-88
2021/09/28 05:45:08;;;;;;;5.55;5.05;;;15.50;99.90;;;;;;4958705;28;20418;-91
2021/09/28 05:47:53;;;;;;;5.30;4.80;;;15.50;99.90;;;;;;4945746;28;20433;-90
2021/09/28 05:50:37;;;;;;;6.00;4.33;;;15.50;99.90;;;;;;4946469;28;20412;-89
2021/09/28 05:53:22;;;;;;;4.07;3.75;;;15.50;99.90;;;;;;4944238;28;20409;-91
2021/09/28 05:56:06;;;;;;;4.70;4.30;;;15.50;99.90;;;;;;4958509;28;20447;-90
2021/09/28 05:58:51;;;;;;;5.35;4.85;;;15.50;99.90;;;;;;4958713;28;20413;-89
2021/09/28 06:01:35;;;;;;;4.30;3.92;;;15.50;99.90;;;;;;4979442;28;20610;-90
2021/09/28 06:04:19;;;;;;;4.07;3.75;;;15.50;99.90;;;;;;4941283;28;20420;-91
2021/09/28 06:07:04;;;;;;;4.53;4.13;;;15.50;99.90;;;;;;4949574;28;20404;-89
2021/09/28 06:09:48;;;;;;;4.32;3.92;;;15.50;99.90;;;;;;4953736;28;20447;-91
2021/09/28 06:12:32;;;;;;;3.90;3.60;;;15.50;99.90;;;;;;4949384;28;20436;-87
2021/09/28 06:15:17;;;;;;;4.43;4.03;;;15.60;99.90;;;;;;4942559;28;20932;-90
2021/09/28 06:18:01;;;;;;;5.15;4.65;;;15.60;99.90;;;;;;4955879;28;20433;-90
2021/09/28 06:20:46;;;;;;;4.47;4.03;;;15.60;99.90;;;;;;4938284;28;20428;-91
2021/09/28 06:23:30;;;;;;;4.22;3.83;;;15.70;99.90;;;;;;4942540;28;20943;-90
2021/09/28 06:26:14;;;;;;;5.13;4.70;;;15.80;99.90;;;;;;4950360;28;20417;-91
2021/09/28 06:28:59;;;;;;;5.28;4.78;;;15.80;99.90;;;;;;4952094;28;20417;-91
2021/09/28 06:31:43;;;;;;;5.32;4.82;;;16.00;99.90;;;;;;4968800;28;20442;-91
2021/09/28 06:34:27;;;;;;;4.93;4.53;;;16.00;99.90;;;;;;4968775;28;20473;-90
2021/09/28 06:37:12;;;;;;;4.75;4.30;;;16.00;99.90;;;;;;4952101;28;20409;-89
2021/09/28 06:39:56;;;;;;;5.05;4.55;;;16.10;99.90;;;;;;4955825;28;20408;-90
2021/09/28 06:42:40;;;;;;;5.10;4.60;;;16.10;99.90;;;;;;4950338;28;20405;-90
2021/09/28 06:45:25;;;;;;;5.10;4.70;;;16.20;99.90;;;;;;4942553;28;20429;-91
2021/09/28 06:48:09;;;;;;;5.32;4.82;;;16.30;99.90;;;;;;4954934;28;20413;-90
2021/09/28 06:50:54;;;;;;;4.22;3.90;;;16.40;99.90;;;;;;4945924;28;20423;-89
2021/09/28 06:53:38;;;;;;;5.45;4.95;;;16.50;99.90;;;;;;4944513;28;20656;-92
2021/09/28 06:56:22;;;;;;;5.20;4.70;;;16.50;99.90;;;;;;4964938;28;20389;-88
2021/09/28 06:59:10;;;;;;;5.22;4.72;;;16.60;99.90;;;;;;4951206;28;20394;-90
2021/09/28 07:01:54;;;;;;;4.53;4.13;;;16.70;99.90;;;;;;4969407;28;20385;-90
2021/09/28 07:04:39;;;;;;;5.88;4.97;;;16.90;99.90;;;;;;4952494;28;20419;-88
2021/09/28 07:07:24;;;;;;;4.20;3.80;;;17.00;99.90;;;;;;4935930;28;20387;-89
2021/09/28 07:10:09;;;;;;;3.83;3.50;;;17.10;99.90;;;;;;4971137;28;20522;-91
2021/09/28 07:12:54;;;;;;;4.53;3.97;;;17.40;99.90;;;;;;4942750;28;20636;-91
2021/09/28 07:15:38;;;;;;;4.00;3.60;;;17.50;99.90;;;;;;4942826;28;20396;-91
2021/09/28 07:18:23;;;;;;;4.45;4.05;;;17.70;99.90;;;;;;4955528;28;20419;-91
2021/09/28 07:21:07;;;;;;;3.58;3.28;;;17.90;99.90;;;;;;4942493;28;20440;-91
2021/09/28 07:23:52;;;;;;;3.35;3.13;;;18.00;99.90;;;;;;4943840;28;20429;-91
2021/09/28 07:26:36;;;;;;;4.00;3.63;;;18.20;99.90;;;;;;4944947;28;20429;-91
2021/09/28 07:29:20;;;;;;;3.90;3.50;;;18.30;99.90;;;;;;4952806;28;20395;-91
2021/09/28 07:32:05;;;;;;;3.70;3.40;;;18.40;99.90;;;;;;4941279;28;20425;-89
2021/09/28 07:34:49;;;;;;;3.25;3.05;;;18.30;99.90;;;;;;4983142;28;20404;-89
2021/09/28 07:37:33;;;;;;;3.63;3.33;;;18.30;99.90;;;;;;4942989;28;20445;-90
2021/09/28 07:40:18;;;;;;;3.45;3.20;;;18.20;99.90;;;;;;4954169;28;20794;-90
2021/09/28 07:43:03;;;;;;;2.65;2.45;;;18.10;99.90;;;;;;4951155;28;20457;-88
2021/09/28 07:45:47;;;;;;;3.90;3.08;;;18.10;99.90;;;;;;4972409;28;20754;-88
2021/09/28 07:48:31;;;;;;;4.03;3.17;;;18.00;99.90;;;;;;4925801;28;20397;-90
2021/09/28 07:51:16;;;;;;;2.90;2.70;;;17.90;99.90;;;;;;4955524;28;20479;-89
2021/09/28 07:54:00;;;;;;;7.83;3.43;;;17.90;99.90;;;;;;4965503;28;20388;-90
2021/09/28 07:56:44;;;;;;;3.53;2.87;;;17.70;99.90;;;;;;4947790;28;20421;-89
2021/09/28 07:59:31;;;;;;;2.63;2.42;;;17.70;99.90;;;;;;4947817;28;20434;-90
2021/09/28 08:02:17;;;;;;;3.80;3.10;;;17.70;99.90;;;;;;4969982;28;20445;-92
2021/09/28 08:05:03;;;;;;;3.27;2.97;;;17.80;99.90;;;;;;4945249;28;20424;-90
2021/09/28 08:07:48;;;;;;;3.30;2.67;;;17.70;99.90;;;;;;4953368;28;20474;-88
2021/09/28 08:10:32;;;;;;;2.97;2.77;;;17.70;99.90;;;;;;4946298;28;20688;-90
2021/09/28 08:13:17;;;;;;;3.27;2.97;;;17.70;99.90;;;;;;4951967;28;20429;-87
2021/09/28 08:16:01;;;;;;;2.50;2.30;;;17.70;99.90;;;;;;4953892;28;20465;-89
2021/09/28 08:18:45;;;;;;;2.53;2.33;;;17.70;99.90;;;;;;4945056;28;20474;-90
2021/09/28 08:21:30;;;;;;;2.75;2.55;;;17.80;99.90;;;;;;4960184;28;20408;-91
2021/09/28 08:24:14;;;;;;;2.60;2.40;;;17.80;99.90;;;;;;4944559;28;20420;-91
2021/09/28 08:30:05;;;;;;;2.70;2.50;;;17.90;99.90;;;;;;4967727;28;20423;-90
2021/09/28 08:32:49;;;;;;;2.15;2.00;;;18.00;99.90;;;;;;4947489;28;20421;-91
2021/09/28 08:35:34;;;;;;;2.30;2.10;;;18.10;99.90;;;;;;4939744;28;20417;-89
2021/09/28 08:38:18;;;;;;;2.22;2.05;;;18.20;99.90;;;;;;4952568;28;20406;-91
2021/09/28 08:41:02;;;;;;;2.20;2.00;;;18.30;99.90;;;;;;4975017;28;20401;-89
2021/09/28 08:43:46;;;;;;;4.35;1.77;;;18.40;99.90;;;;;;4950415;28;20438;-90
2021/09/28 08:46:31;;;;;;;1.92;1.83;;;18.30;99.90;;;;;;4945653;28;20402;-88
2021/09/28 08:49:19;;;;;;;1.70;1.60;;;18.20;99.90;;;;;;4946616;28;20451;-90
2021/09/28 08:52:04;;;;;;;1.75;1.65;;;18.20;99.90;;;;;;4949221;28;20475;-91
2021/09/28 08:54:48;;;;;;;1.60;1.50;;;18.30;99.90;;;;;;4960203;28;20421;-87
2021/09/28 08:57:33;;;;;;;4.05;1.65;;;18.30;99.90;;;;;;4989267;28;20483;-90
2021/09/28 09:00:17;;;;;;;1.95;1.80;;;18.40;99.90;;;;;;4942486;28;20393;-89
2021/09/28 09:03:01;;;;;;;2.20;2.00;;;18.50;99.90;;;;;;4968058;28;20397;-90
2021/09/28 09:05:47;;;;;;;1.60;1.50;;;18.40;99.90;;;;;;4944790;28;20425;-90
2021/09/28 09:08:35;;;;;;;1.52;1.42;;;18.40;99.90;;;;;;4940046;28;20394;-90
2021/09/28 09:11:21;;;;;;;1.30;1.20;;;18.50;99.90;;;;;;4944909;28;20470;-91
2021/09/28 09:14:26;;;;;;;1.33;1.23;;;18.50;99.90;;;;;;4939111;28;20425;-90
2021/09/28 09:17:11;;;;;;;1.40;1.30;;;18.80;99.90;;;;;;4957265;28;20476;-88
2021/09/28 09:19:55;;;;;;;1.33;1.23;;;18.50;99.90;;;;;;4958455;28;20409;-89
2021/09/28 09:22:40;;;;;;;1.50;1.40;;;18.40;99.90;;;;;;4956962;28;20388;-89
2021/09/28 09:25:24;;;;;;;1.00;1.00;;;18.30;99.90;;;;;;4952083;28;20437;-91
2021/09/28 09:28:23;;;;;;;0.95;0.95;;;18.20;99.90;;;;;;4954391;28;20413;-90
2021/09/28 09:31:11;;;;;;;1.70;1.15;;;18.50;99.90;;;;;;4958693;28;20424;-90
2021/09/28 09:34:14;;;;;;;1.23;1.13;;;18.60;99.90;;;;;;4940633;28;20392;-90
2021/09/28 09:37:05;;;;;;;0.70;0.70;;;18.70;99.90;;;;;;4953663;28;20437;-89
2021/09/28 09:39:55;;;;;;;0.90;0.90;;;18.90;99.90;;;;;;4944827;28;20409;-91
2021/09/28 09:42:53;;;;;;;0.98;0.98;;;18.70;99.90;;;;;;4960705;28;20731;-91
2021/09/28 09:45:38;;;;;;;1.52;1.30;;;18.90;99.90;;;;;;4954749;28;20422;-88
2021/09/28 09:48:23;;;;;;;1.20;1.10;;;18.80;99.90;;;;;;4942942;28;20417;-90
2021/09/28 09:51:09;;;;;;;1.10;1.00;;;18.90;99.90;;;;;;4945285;28;20466;-89
2021/09/28 09:53:59;;;;;;;1.08;1.05;;;18.70;99.90;;;;;;4971096;28;20433;-91
2021/09/28 09:56:51;;;;;;;0.85;0.82;;;18.80;99.90;;;;;;4966700;28;20501;-89
2021/09/28 09:59:36;;;;;;;0.80;0.80;;;19.00;99.90;;;;;;4955784;28;20393;-92
2021/09/28 10:02:20;;;;;;;1.00;1.00;;;19.10;99.90;;;;;;4949003;28;20525;-89
2021/09/28 10:05:05;;;;;;;1.42;0.98;;;19.10;99.90;;;;;;4957228;28;20478;-91
2021/09/28 10:07:49;;;;;;;1.00;1.00;;;19.10;99.90;;;;;;4940929;28;20437;-90
2021/09/28 10:10:38;;;;;;;1.00;0.90;;;19.00;99.90;;;;;;4952486;28;20433;-90
2021/09/28 10:13:47;;;;;;;0.93;0.93;;;18.90;99.90;;;;;;4940143;28;20449;-88
2021/09/28 10:16:41;;;;;;;1.20;1.10;;;18.90;99.90;;;;;;4949697;28;20420;-87
2021/09/28 10:19:28;;;;;;;1.30;1.10;;;18.60;99.90;;;;;;4953685;28;20457;-89
2021/09/28 10:22:37;;;;;;;0.70;0.70;;;18.50;99.90;;;;;;4964489;28;20412;-89
2021/09/28 10:25:34;;;;;;;0.88;0.88;;;18.60;99.90;;;;;;4973436;28;20393;-88
2021/09/28 10:28:18;;;;;;;0.80;0.80;;;18.60;99.90;;;;;;4967210;28;20385;-91
2021/09/28 10:31:04;;;;;;;0.83;0.83;;;18.70;99.90;;;;;;4960709;28;20419;-92
2021/09/28 10:33:52;;;;;;;1.30;1.20;;;18.60;99.90;;;;;;4941285;28;20420;-89
2021/09/28 10:36:49;;;;;;;1.30;1.20;;;18.50;99.90;;;;;;4944710;28;20401;-89
2021/09/28 10:39:37;;;;;;;1.30;1.20;;;18.30;99.90;;;;;;4971133;28;20401;-90
2021/09/28 10:42:48;;;;;;;1.33;1.20;;;18.30;99.90;;;;;;4943515;28;20396;-89
2021/09/28 10:45:32;;;;;;;1.60;1.00;;;18.10;99.90;;;;;;4966507;28;20438;-87
2021/09/28 10:48:29;;;;;;;1.23;1.13;;;18.20;99.90;;;;;;4965485;28;20392;-87
2021/09/28 10:51:21;;;;;;;1.70;1.10;;;18.20;99.90;;;;;;4978287;28;20486;-86
2021/09/28 10:54:05;;;;;;;0.85;0.85;;;18.10;99.90;;;;;;4943716;28;20399;-86
2021/09/28 10:56:50;;;;;;;0.98;0.98;;;17.90;99.90;;;;;;4940672;28;21056;-87
2021/09/28 10:59:59;;;;;;;1.63;1.00;;;17.90;99.90;;;;;;4967796;28;20398;-87
2021/09/28 11:02:54;;;;;;;1.10;1.00;;;17.90;99.90;;;;;;4977061;28;20425;-86
2021/09/28 11:05:43;;;;;;;1.08;1.08;;;18.00;99.90;;;;;;4933670;28;20453;-89
2021/09/28 11:08:34;;;;;;;1.00;1.00;;;18.10;99.90;;;;;;4950290;28;20400;-89
2021/09/28 11:11:21;;;;;;;1.33;1.23;;;18.10;99.90;;;;;;4939975;28;20438;-89
2021/09/28 11:14:07;;;;;;;1.40;1.13;;;18.20;99.90;;;;;;4951533;28;20413;-82
2021/09/28 11:16:55;;;;;;;0.70;0.70;;;18.10;99.90;;;;;;4944753;28;20406;-88
2021/09/28 11:19:39;;;;;;;1.00;1.00;;;18.10;99.90;;;;;;4947494;28;20444;-85
2021/09/28 11:22:23;;;;;;;0.80;0.80;;;18.10;99.90;;;;;;4951148;28;20401;-83
2021/09/28 11:25:13;;;;;;;0.80;0.80;;;18.10;99.90;;;;;;4955848;28;21008;-87
2021/09/28 11:28:08;;;;;;;1.00;1.00;;;18.10;99.90;;;;;;4935522;28;20429;-89
2021/09/28 11:31:04;;;;;;;1.77;1.30;;;18.00;99.90;;;;;;4940176;28;20522;-85
2021/09/28 11:33:48;;;;;;;1.15;1.08;;;17.90;99.90;;;;;;4950539;28;20404;-84
2021/09/28 11:36:40;;;;;;;1.25;1.08;;;17.90;99.90;;;;;;4963555;28;20401;-85
2021/09/28 11:39:24;;;;;;;3.13;1.23;;;17.80;99.90;;;;;;4934116;28;20503;-85
2021/09/28 11:42:10;;;;;;;1.13;1.13;;;17.70;99.90;;;;;;4981707;28;20453;-85
2021/09/28 11:44:55;;;;;;;1.35;1.25;;;17.80;99.90;;;;;;4923300;28;21086;-88
2021/09/28 11:47:41;;;;;;;1.10;1.00;;;17.80;99.90;;;;;;4941326;28;20448;-89
2021/09/28 11:50:26;;;;;;;1.40;1.30;;;17.80;99.90;;;;;;4954000;28;20451;-88
2021/09/28 11:53:10;;;;;;;0.98;0.98;;;17.80;99.90;;;;;;4943187;28;20405;-87
2021/09/28 11:55:54;;;;;;;1.77;1.20;;;17.80;99.90;;;;;;4952746;28;21984;-85
2021/09/28 11:58:39;;;;;;;2.08;1.17;;;17.80;99.90;;;;;;4950933;28;20449;-86
2021/09/28 12:01:24;;;;;;;1.90;1.15;;;17.70;99.90;;;;;;4936792;28;20414;-87
2021/09/28 12:05:23;;;;;;;1.10;1.00;;;17.70;99.90;;;;;;4941013;28;20429;-87
2021/09/28 12:07:57;;;;;;;0.80;0.80;;;17.70;99.90;;;;;;4957816;28;20408;-88
2021/09/28 12:10:26;;;;;;;1.80;1.08;;;17.60;99.90;;;;;;4952471;28;20433;-88
2021/09/28 12:13:40;;;;;;;2.80;1.30;;;17.50;99.90;;;;;;4940994;28;20401;-89
2021/09/28 12:16:25;;;;;;;1.00;1.00;;;17.50;99.90;;;;;;4939946;28;20493;-87
2021/09/28 12:19:09;;;;;;;1.20;0.90;;;17.30;99.90;;;;;;4935985;28;20405;-84
2021/09/28 12:21:53;;;;;;;1.00;1.00;;;17.30;99.90;;;;;;4961079;28;20409;-84
2021/09/28 12:24:53;;;;;;;1.50;0.90;;;17.30;99.90;;;;;;4948821;28;20487;-86
2021/09/28 12:27:37;;;;;;;1.30;0.90;;;17.20;99.90;;;;;;4980233;28;20400;-83
2021/09/28 12:30:31;;;;;;;1.27;1.10;;;17.20;99.90;;;;;;4941496;28;20401;-91
2021/09/28 12:33:15;;;;;;;0.90;0.90;;;17.10;99.90;;;;;;4954180;28;20466;-87
2021/09/28 12:35:59;;;;;;;1.00;1.00;;;17.00;99.90;;;;;;4941185;28;20400;-86
2021/09/28 12:38:47;;;;;;;1.20;0.90;;;16.90;99.90;;;;;;4943734;28;20722;-86
2021/09/28 12:41:31;;;;;;;0.80;0.80;;;16.80;99.90;;;;;;4941120;28;20401;-87
2021/09/28 12:44:22;;;;;;;2.10;1.00;;;16.80;99.90;;;;;;4940761;28;20955;-88
2021/09/28 12:47:24;;;;;;;0.90;0.80;;;16.70;99.90;;;;;;4940721;28;21021;-86
2021/09/28 12:50:22;;;;;;;0.90;0.90;;;16.50;99.90;;;;;;4960775;28;20941;-88
2021/09/28 12:53:14;;;;;;;0.60;0.60;;;16.50;99.90;;;;;;4966733;28;20425;-87
2021/09/28 12:55:58;;;;;;;0.90;0.90;;;16.50;99.90;;;;;;4953833;28;20979;-86
2021/09/28 12:58:43;;;;;;;0.95;0.90;;;16.60;99.90;;;;;;4939834;28;20422;-85
2021/09/28 13:01:27;;;;;;;1.35;0.98;;;16.60;99.90;;;;;;4980373;28;20405;-85
2021/09/28 13:04:16;;;;;;;0.80;0.80;;;16.60;99.90;;;;;;4943696;28;20472;-89
2021/09/28 13:07:05;;;;;;;0.77;0.77;;;16.60;99.90;;;;;;4971509;28;20405;-90
2021/09/28 13:09:50;;;;;;;1.00;1.00;;;16.70;99.90;;;;;;4928351;28;20431;-91
2021/09/28 13:12:34;;;;;;;0.80;0.80;;;16.80;99.90;;;;;;4962304;28;20433;-89
2021/09/28 13:15:22;;;;;;;0.70;0.70;;;16.80;99.90;;;;;;4973086;28;20732;-89
2021/09/28 13:18:06;;;;;;;0.88;0.85;;;16.70;99.90;;;;;;4944140;28;20417;-88
2021/09/28 13:20:51;;;;;;;1.13;1.08;;;16.80;99.90;;;;;;4944113;28;20474;-89
2021/09/28 13:23:35;;;;;;;0.70;0.70;;;16.60;99.90;;;;;;4958784;28;20643;-88
2021/09/28 13:26:19;;;;;;;0.80;0.80;;;16.50;99.90;;;;;;4958828;28;20389;-87
2021/09/28 13:29:04;;;;;;;2.30;0.90;;;16.60;99.90;;;;;;4964486;28;20461;-89
2021/09/28 13:31:48;;;;;;;0.70;0.70;;;16.60;99.90;;;;;;4943682;28;20486;-90
2021/09/28 13:34:33;;;;;;;0.90;0.90;;;16.50;99.90;;;;;;4953857;28;20493;-89
2021/09/28 13:37:19;;;;;;;1.08;0.90;;;16.60;99.90;;;;;;4959050;28;20400;-89
2021/09/28 13:40:05;;;;;;;0.93;0.80;;;16.60;99.90;;;;;;4944204;28;20449;-86
2021/09/28 13:42:49;;;;;;;0.60;0.60;;;16.60;99.90;;;;;;4955153;28;20400;-87
2021/09/28 13:45:37;;;;;;;1.10;0.90;;;16.60;99.90;;;;;;4947472;28;20465;-89
2021/09/28 13:48:21;;;;;;;1.05;1.00;;;16.80;99.90;;;;;;4942973;28;20641;-91
2021/09/28 13:51:05;;;;;;;1.52;0.90;;;16.80;99.90;;;;;;4966443;28;20426;-86
2021/09/28 13:53:50;;;;;;;0.88;0.88;;;16.80;99.90;;;;;;4959573;28;20440;-88
2021/09/28 13:56:34;;;;;;;1.80;1.10;;;16.90;99.90;;;;;;4948528;28;20421;-89
2021/09/28 13:59:19;;;;;;;0.90;0.90;;;16.90;99.90;;;;;;4942680;28;20506;-89
2021/09/28 14:02:04;;;;;;;0.80;0.80;;;16.80;99.90;;;;;;4942818;28;20426;-87
2021/09/28 14:04:48;;;;;;;0.70;0.70;;;16.80;99.90;;;;;;4954490;28;20405;-89
2021/09/28 14:07:33;;;;;;;0.77;0.77;;;16.80;99.90;;;;;;4953706;28;20405;-88
2021/09/28 14:10:17;;;;;;;0.70;0.70;;;16.80;99.90;;;;;;4943048;28;20392;-89
2021/09/28 14:13:02;;;;;;;0.90;0.90;;;16.80;99.90;;;;;;4951572;28;20451;-86
2021/09/28 14:15:46;;;;;;;2.45;1.20;;;17.00;99.90;;;;;;4942235;28;20437;-89
2021/09/28 14:18:32;;;;;;;1.90;0.95;;;16.90;99.90;;;;;;4950423;28;20399;-90
2021/09/28 14:21:18;;;;;;;0.90;0.90;;;16.90;99.90;;;;;;4949531;28;20410;-89
2021/09/28 14:24:03;;;;;;;0.90;0.90;;;16.70;99.90;;;;;;4959467;28;20397;-90
2021/09/28 14:26:47;;;;;;;0.70;0.70;;;16.70;99.90;;;;;;4963540;28;20407;-93
2021/09/28 14:29:32;;;;;;;1.10;1.10;;;16.70;99.90;;;;;;4960271;28;20404;-92